createdAt,value
2017-12-23T00:00:15.425Z,40.61
2017-12-23T00:00:37.109Z,40.57
2017-12-23T00:00:58.835Z,40.53
2017-12-23T00:01:20.525Z,40.53
2017-12-23T00:01:42.219Z,40.50
2017-12-23T00:02:08.691Z,40.52
2017-12-23T00:02:30.379Z,40.52
2017-12-23T00:02:52.071Z,40.57
2017-12-23T00:03:13.771Z,40.50
2017-12-23T00:03:40.265Z,40.49
2017-12-23T00:04:02.001Z,40.48
2017-12-23T00:04:23.692Z,40.45
2017-12-23T00:04:50.152Z,40.46
2017-12-23T00:05:11.835Z,40.48
2017-12-23T00:05:43.093Z,40.49
2017-12-23T00:06:04.804Z,40.50
2017-12-23T00:06:26.500Z,40.46
2017-12-23T00:06:52.968Z,40.47
2017-12-23T00:07:14.657Z,40.49
2017-12-23T00:07:41.130Z,40.45
2017-12-23T00:08:02.829Z,40.46
2017-12-23T00:08:24.519Z,40.48
2017-12-23T00:08:46.230Z,40.42
2017-12-23T00:09:07.926Z,40.41
2017-12-23T00:09:29.615Z,40.42
2017-12-23T00:09:51.311Z,40.43
2017-12-23T00:10:13.010Z,40.43
2017-12-23T00:10:34.698Z,40.47
2017-12-23T00:10:56.390Z,40.48
2017-12-23T00:11:18.113Z,40.42
2017-12-23T00:11:39.804Z,40.40
2017-12-23T00:12:01.510Z,40.41
2017-12-23T00:12:23.203Z,40.46
2017-12-23T00:12:44.898Z,40.45
2017-12-23T00:13:06.578Z,40.50
2017-12-23T00:13:28.272Z,40.50
2017-12-23T00:13:49.967Z,40.50
2017-12-23T00:14:16.439Z,40.46
2017-12-23T00:14:38.149Z,40.38
2017-12-23T00:14:59.838Z,40.39
2017-12-23T00:15:21.537Z,40.37
2017-12-23T00:15:43.231Z,40.41
2017-12-23T00:16:04.917Z,40.41
2017-12-23T00:16:26.621Z,40.45
2017-12-23T00:16:48.287Z,40.44
2017-12-23T00:17:19.534Z,40.51
2017-12-23T00:17:41.217Z,40.57
2017-12-23T00:18:02.915Z,40.52
2017-12-23T00:18:24.610Z,40.49
2017-12-23T00:18:46.306Z,40.43
2017-12-23T00:19:08.029Z,40.42
2017-12-23T00:19:34.512Z,40.42
2017-12-23T00:19:56.235Z,40.41
2017-12-23T00:20:17.929Z,40.38
2017-12-23T00:20:44.395Z,40.36
2017-12-23T00:21:06.102Z,40.36
2017-12-23T00:21:32.571Z,40.40
2017-12-23T00:21:54.259Z,40.38
2017-12-23T00:22:15.944Z,40.37
2017-12-23T00:22:37.642Z,40.37
2017-12-23T00:22:59.334Z,40.41
2017-12-23T00:23:21.034Z,40.45
2017-12-23T00:23:47.506Z,40.46
2017-12-23T00:24:09.189Z,40.40
2017-12-23T00:24:30.881Z,40.43
2017-12-23T00:24:52.571Z,40.40
2017-12-23T00:25:14.282Z,40.41
2017-12-23T00:25:35.992Z,40.43
2017-12-23T00:26:02.455Z,40.38
2017-12-23T00:26:24.141Z,40.38
2017-12-23T00:26:45.824Z,40.39
2017-12-23T00:27:07.540Z,40.39
2017-12-23T00:27:29.219Z,40.45
2017-12-23T00:27:55.692Z,40.51
2017-12-23T00:28:17.377Z,40.48
2017-12-23T00:28:39.075Z,40.46
2017-12-23T00:29:05.554Z,40.43
2017-12-23T00:29:27.240Z,40.41
2017-12-23T00:29:48.933Z,40.40
2017-12-23T00:30:10.633Z,40.38
2017-12-23T00:30:32.352Z,40.39
2017-12-23T00:30:58.835Z,40.38
2017-12-23T00:31:20.518Z,40.36
2017-12-23T00:31:42.207Z,40.38
2017-12-23T00:32:03.887Z,40.38
2017-12-23T00:32:25.577Z,40.33
2017-12-23T00:32:47.263Z,40.35
2017-12-23T00:33:13.751Z,40.31
2017-12-23T00:33:35.436Z,40.28
2017-12-23T00:33:57.134Z,40.27
2017-12-23T00:34:18.823Z,40.28
2017-12-23T00:34:40.507Z,40.28
2017-12-23T00:35:02.188Z,40.27
2017-12-23T00:35:23.886Z,40.25
2017-12-23T00:35:45.600Z,40.24
2017-12-23T00:36:07.282Z,40.25
2017-12-23T00:36:28.980Z,40.26
2017-12-23T00:36:50.669Z,40.21
2017-12-23T00:37:12.356Z,40.25
2017-12-23T00:37:34.053Z,40.25
2017-12-23T00:37:55.739Z,40.26
2017-12-23T00:38:17.435Z,40.29
2017-12-23T00:38:39.134Z,40.27
2017-12-23T00:39:00.823Z,40.25
2017-12-23T00:39:22.508Z,40.29
2017-12-23T00:39:44.202Z,40.34
2017-12-23T00:40:05.901Z,40.31
2017-12-23T00:40:27.580Z,40.28
2017-12-23T00:40:54.052Z,40.29
2017-12-23T00:41:15.738Z,40.27
2017-12-23T00:41:37.435Z,40.29
2017-12-23T00:41:59.127Z,40.32
2017-12-23T00:42:20.819Z,40.30
2017-12-23T00:42:42.511Z,40.32
2017-12-23T00:43:04.217Z,40.27
2017-12-23T00:43:25.902Z,40.24
2017-12-23T00:43:47.602Z,40.30
2017-12-23T00:44:09.302Z,40.34
2017-12-23T00:44:31.007Z,40.30
2017-12-23T00:44:52.702Z,40.25
2017-12-23T00:45:14.396Z,40.26
2017-12-23T00:45:36.098Z,40.27
2017-12-23T00:45:57.803Z,40.25
2017-12-23T00:46:19.524Z,40.27
2017-12-23T00:46:41.199Z,40.29
2017-12-23T00:47:02.883Z,40.27
2017-12-23T00:47:29.356Z,40.29
2017-12-23T00:47:51.045Z,40.27
2017-12-23T00:48:12.735Z,40.29
2017-12-23T00:48:39.208Z,40.22
2017-12-23T00:49:00.982Z,40.26
2017-12-23T00:49:22.661Z,40.22
2017-12-23T00:49:44.361Z,40.23
2017-12-23T00:50:06.053Z,40.23
2017-12-23T00:50:27.750Z,40.22
2017-12-23T00:50:49.453Z,40.22
2017-12-23T00:51:11.169Z,40.24
2017-12-23T00:51:32.849Z,40.27
2017-12-23T00:51:59.327Z,40.29
2017-12-23T00:52:21.017Z,40.27
2017-12-23T00:52:42.703Z,40.24
2017-12-23T00:53:04.417Z,40.23
2017-12-23T00:53:26.103Z,40.22
2017-12-23T00:53:47.789Z,40.25
2017-12-23T00:54:09.480Z,40.27
2017-12-23T00:54:31.168Z,40.27
2017-12-23T00:54:52.857Z,40.25
2017-12-23T00:55:14.554Z,40.29
2017-12-23T00:55:36.251Z,40.30
2017-12-23T00:55:57.928Z,40.24
2017-12-23T00:56:19.649Z,40.25
2017-12-23T00:56:41.337Z,40.18
2017-12-23T00:57:03.111Z,40.15
2017-12-23T00:57:24.876Z,40.13
2017-12-23T00:57:51.281Z,40.13
2017-12-23T00:58:12.970Z,40.11
2017-12-23T00:58:34.662Z,40.18
2017-12-23T00:58:56.355Z,40.16
2017-12-23T00:59:18.047Z,40.13
2017-12-23T00:59:39.748Z,40.16
2017-12-23T01:00:01.439Z,40.13
2017-12-23T01:00:23.122Z,40.15
2017-12-23T01:00:44.821Z,40.16
2017-12-23T01:01:06.510Z,40.16
2017-12-23T01:01:28.221Z,40.15
2017-12-23T01:02:26.552Z,40.16
2017-12-23T01:02:48.261Z,40.17
2017-12-23T01:03:09.961Z,40.21
2017-12-23T01:03:31.653Z,40.20
2017-12-23T01:03:53.352Z,40.18
2017-12-23T01:04:15.047Z,40.19
2017-12-23T01:04:36.745Z,40.28
2017-12-23T01:04:58.435Z,40.24
2017-12-23T01:05:20.125Z,40.23
2017-12-23T01:05:41.833Z,40.23
2017-12-23T01:06:03.520Z,40.23
2017-12-23T01:06:25.219Z,40.22
2017-12-23T01:06:46.915Z,40.18
2017-12-23T01:07:08.618Z,40.17
2017-12-23T01:07:30.308Z,40.16
2017-12-23T01:07:52.003Z,40.11
2017-12-23T01:08:13.691Z,40.11
2017-12-23T01:08:35.387Z,40.09
2017-12-23T01:08:57.088Z,40.16
2017-12-23T01:09:18.777Z,40.15
2017-12-23T01:09:40.473Z,40.15
2017-12-23T01:10:02.152Z,40.16
2017-12-23T01:10:28.626Z,40.11
2017-12-23T01:10:50.317Z,40.16
2017-12-23T01:11:12.016Z,40.16
2017-12-23T01:11:33.744Z,40.13
2017-12-23T01:11:55.429Z,40.18
2017-12-23T01:12:17.135Z,40.20
2017-12-23T01:13:15.481Z,40.14
2017-12-23T01:13:37.173Z,40.11
2017-12-23T01:13:58.869Z,40.05
2017-12-23T01:14:20.561Z,40.07
2017-12-23T01:14:42.248Z,40.10
2017-12-23T01:15:08.716Z,40.11
2017-12-23T01:15:30.402Z,40.18
2017-12-23T01:15:52.091Z,40.22
2017-12-23T01:16:13.797Z,40.18
2017-12-23T01:16:35.505Z,40.18
2017-12-23T01:16:57.194Z,40.18
2017-12-23T01:17:18.891Z,40.18
2017-12-23T01:17:40.578Z,40.16
2017-12-23T01:18:02.273Z,40.18
2017-12-23T01:18:28.748Z,40.16
2017-12-23T01:18:50.436Z,40.23
2017-12-23T01:19:12.129Z,40.16
2017-12-23T01:19:33.824Z,40.17
2017-12-23T01:19:55.516Z,40.15
2017-12-23T01:20:17.200Z,40.13
2017-12-23T01:20:48.458Z,40.13
2017-12-23T01:21:10.147Z,40.09
2017-12-23T01:21:31.847Z,40.13
2017-12-23T01:21:53.564Z,40.13
2017-12-23T01:22:15.250Z,40.16
2017-12-23T01:22:41.726Z,40.16
2017-12-23T01:23:03.415Z,40.13
2017-12-23T01:23:25.101Z,40.10
2017-12-23T01:23:46.797Z,40.05
2017-12-23T01:24:08.495Z,40.02
2017-12-23T01:24:39.734Z,40.07
2017-12-23T01:25:01.414Z,40.07
2017-12-23T01:25:23.111Z,39.99
2017-12-23T01:25:44.802Z,40.01
2017-12-23T01:26:06.493Z,40.07
2017-12-23T01:26:32.996Z,40.05
2017-12-23T01:26:54.685Z,40.06
2017-12-23T01:27:21.159Z,40.05
2017-12-23T01:27:42.844Z,40.11
2017-12-23T01:28:04.531Z,40.11
2017-12-23T01:28:26.227Z,40.13
2017-12-23T01:28:47.916Z,40.14
2017-12-23T01:29:09.604Z,40.09
2017-12-23T01:29:31.299Z,40.13
2017-12-23T01:29:57.771Z,40.11
2017-12-23T01:30:19.469Z,40.09
2017-12-23T01:30:41.158Z,40.08
2017-12-23T01:31:02.849Z,40.08
2017-12-23T01:31:24.534Z,40.09
2017-12-23T01:31:46.259Z,40.09
2017-12-23T01:32:17.524Z,40.06
2017-12-23T01:32:39.213Z,40.07
2017-12-23T01:33:00.905Z,40.01
2017-12-23T01:33:22.601Z,39.98
2017-12-23T01:33:44.304Z,40.00
2017-12-23T01:34:05.979Z,40.03
2017-12-23T01:34:32.454Z,39.99
2017-12-23T01:34:54.141Z,40.02
2017-12-23T01:35:20.618Z,40.01
2017-12-23T01:35:42.312Z,40.01
2017-12-23T01:36:08.785Z,40.01
2017-12-23T01:36:30.471Z,40.00
2017-12-23T01:36:56.948Z,39.97
2017-12-23T01:37:18.636Z,39.93
2017-12-23T01:37:40.330Z,39.96
2017-12-23T01:38:02.020Z,40.01
2017-12-23T01:38:23.708Z,40.06
2017-12-23T01:38:45.407Z,40.04
2017-12-23T01:39:07.097Z,40.09
2017-12-23T01:39:33.577Z,40.10
2017-12-23T01:39:55.267Z,40.10
2017-12-23T01:40:16.961Z,40.05
2017-12-23T01:40:38.667Z,40.06
2017-12-23T01:41:00.350Z,40.03
2017-12-23T01:41:31.601Z,40.02
2017-12-23T01:41:53.314Z,40.04
2017-12-23T01:42:15.009Z,40.00
2017-12-23T01:42:41.479Z,39.98
2017-12-23T01:43:03.169Z,40.00
2017-12-23T01:43:24.867Z,40.01
2017-12-23T01:43:46.560Z,40.03
2017-12-23T01:44:08.248Z,40.02
2017-12-23T01:44:34.736Z,39.99
2017-12-23T01:44:56.426Z,39.97
2017-12-23T01:45:18.112Z,39.95
2017-12-23T01:45:44.587Z,39.94
2017-12-23T01:46:06.278Z,39.90
2017-12-23T01:46:27.978Z,39.93
2017-12-23T01:46:49.671Z,39.88
2017-12-23T01:47:11.364Z,39.87
2017-12-23T01:47:33.048Z,39.86
2017-12-23T01:47:54.747Z,39.88
2017-12-23T01:48:16.449Z,39.92
2017-12-23T01:48:38.140Z,39.91
2017-12-23T01:48:59.833Z,39.93
2017-12-23T01:49:21.523Z,39.92
2017-12-23T01:49:43.213Z,39.94
2017-12-23T01:50:04.910Z,39.95
2017-12-23T01:50:26.593Z,39.94
2017-12-23T01:50:48.283Z,39.96
2017-12-23T01:51:09.980Z,39.97
2017-12-23T01:51:36.457Z,39.95
2017-12-23T01:51:58.166Z,39.91
2017-12-23T01:52:19.857Z,39.90
2017-12-23T01:52:46.336Z,39.94
2017-12-23T01:53:08.025Z,39.92
2017-12-23T01:53:29.721Z,39.97
2017-12-23T01:53:56.192Z,39.98
2017-12-23T01:54:17.873Z,40.02
2017-12-23T01:54:44.341Z,40.02
2017-12-23T01:55:06.028Z,40.03
2017-12-23T01:55:27.718Z,40.00
2017-12-23T01:55:54.194Z,39.95
2017-12-23T01:56:15.879Z,39.96
2017-12-23T01:56:47.126Z,39.99
2017-12-23T01:57:08.842Z,40.01
2017-12-23T01:57:30.538Z,40.00
2017-12-23T01:57:52.232Z,39.95
2017-12-23T01:58:13.918Z,39.91
2017-12-23T01:58:35.604Z,39.90
2017-12-23T01:59:02.068Z,39.88
2017-12-23T01:59:23.753Z,39.88
2017-12-23T01:59:54.996Z,39.96
2017-12-23T02:00:16.685Z,39.97
2017-12-23T02:00:38.381Z,39.94
2017-12-23T02:01:00.082Z,40.03
2017-12-23T02:01:21.771Z,39.98
2017-12-23T02:01:43.468Z,39.97
2017-12-23T02:02:05.156Z,39.93
2017-12-23T02:02:26.841Z,39.94
2017-12-23T02:03:25.190Z,39.93
2017-12-23T02:03:46.875Z,39.91
2017-12-23T02:04:08.574Z,39.98
2017-12-23T02:04:30.272Z,40.00
2017-12-23T02:04:51.955Z,40.02
2017-12-23T02:05:13.665Z,40.04
2017-12-23T02:05:35.399Z,40.04
2017-12-23T02:05:57.049Z,40.00
2017-12-23T02:06:18.744Z,40.00
2017-12-23T02:06:40.434Z,39.99
2017-12-23T02:07:02.122Z,39.99
2017-12-23T02:07:23.845Z,39.93
2017-12-23T02:07:45.536Z,39.91
2017-12-23T02:08:07.224Z,39.91
2017-12-23T02:08:28.918Z,39.89
2017-12-23T02:08:50.617Z,39.91
2017-12-23T02:09:12.302Z,39.90
2017-12-23T02:09:34.000Z,39.91
2017-12-23T02:09:55.691Z,39.92
2017-12-23T02:10:17.383Z,39.90
2017-12-23T02:10:39.070Z,39.93
2017-12-23T02:11:00.761Z,39.95
2017-12-23T02:11:22.551Z,39.96
2017-12-23T02:11:44.235Z,40.00
2017-12-23T02:12:05.931Z,40.00
2017-12-23T02:12:27.650Z,40.00
2017-12-23T02:12:49.343Z,39.94
2017-12-23T02:13:11.036Z,39.95
2017-12-23T02:13:32.739Z,39.99
2017-12-23T02:13:54.428Z,39.97
2017-12-23T02:14:16.117Z,39.96
2017-12-23T02:14:37.839Z,39.93
2017-12-23T02:14:59.530Z,39.89
2017-12-23T02:15:21.211Z,39.85
2017-12-23T02:15:52.459Z,39.83
2017-12-23T02:16:14.143Z,39.82
2017-12-23T02:16:35.840Z,39.84
2017-12-23T02:16:57.525Z,39.82
2017-12-23T02:17:19.212Z,39.84
2017-12-23T02:17:45.703Z,39.84
2017-12-23T02:18:07.373Z,39.88
2017-12-23T02:18:29.067Z,39.85
2017-12-23T02:18:55.527Z,39.80
2017-12-23T02:19:17.217Z,39.79
2017-12-23T02:19:38.945Z,39.86
2017-12-23T02:20:05.420Z,39.88
2017-12-23T02:20:27.114Z,39.88
2017-12-23T02:20:48.810Z,39.86
2017-12-23T02:21:10.506Z,39.94
2017-12-23T02:21:32.192Z,39.93
2017-12-23T02:21:58.668Z,39.88
2017-12-23T02:22:20.350Z,39.86
2017-12-23T02:22:42.045Z,39.91
2017-12-23T02:23:03.739Z,39.93
2017-12-23T02:23:25.422Z,39.91
2017-12-23T02:23:47.119Z,39.88
2017-12-23T02:24:13.586Z,39.84
2017-12-23T02:24:35.270Z,39.91
2017-12-23T02:24:56.995Z,39.86
2017-12-23T02:25:18.693Z,39.91
2017-12-23T02:25:40.378Z,39.95
2017-12-23T02:26:06.854Z,39.93
2017-12-23T02:26:28.541Z,39.97
2017-12-23T02:26:55.017Z,39.96
2017-12-23T02:27:16.700Z,39.95
2017-12-23T02:27:38.401Z,39.95
2017-12-23T02:28:00.111Z,39.91
2017-12-23T02:28:21.785Z,39.93
2017-12-23T02:28:48.254Z,39.91
2017-12-23T02:29:09.954Z,39.88
2017-12-23T02:29:31.648Z,39.90
2017-12-23T02:29:58.146Z,39.90
2017-12-23T02:30:19.836Z,39.88
2017-12-23T02:30:41.530Z,39.86
2017-12-23T02:31:03.224Z,39.85
2017-12-23T02:31:24.909Z,39.86
2017-12-23T02:31:46.612Z,39.87
2017-12-23T02:32:08.304Z,39.82
2017-12-23T02:32:29.991Z,39.77
2017-12-23T02:32:51.690Z,39.80
2017-12-23T02:33:13.392Z,39.82
2017-12-23T02:33:35.079Z,39.81
2017-12-23T02:33:56.772Z,39.87
2017-12-23T02:34:23.237Z,39.85
2017-12-23T02:34:44.922Z,39.81
2017-12-23T02:35:06.894Z,39.80
2017-12-23T02:35:33.364Z,39.75
2017-12-23T02:35:55.042Z,39.75
2017-12-23T02:36:21.518Z,39.75
2017-12-23T02:36:43.208Z,39.77
2017-12-23T02:37:14.464Z,39.80
2017-12-23T02:37:36.151Z,39.86
2017-12-23T02:37:57.851Z,39.86
2017-12-23T02:38:19.539Z,39.86
2017-12-23T02:38:41.230Z,39.84
2017-12-23T02:39:07.702Z,39.88
2017-12-23T02:39:29.392Z,39.87
2017-12-23T02:39:51.153Z,39.82
2017-12-23T02:40:12.872Z,39.81
2017-12-23T02:40:34.565Z,39.82
2017-12-23T02:40:56.259Z,39.84
2017-12-23T02:41:17.957Z,39.86
2017-12-23T02:41:39.646Z,39.86
2017-12-23T02:42:01.339Z,39.87
2017-12-23T02:42:23.029Z,39.88
2017-12-23T02:42:44.720Z,39.93
2017-12-23T02:43:06.411Z,39.89
2017-12-23T02:43:28.100Z,39.82
2017-12-23T02:43:54.570Z,39.79
2017-12-23T02:44:16.263Z,39.79
2017-12-23T02:44:37.959Z,39.84
2017-12-23T02:44:59.655Z,39.86
2017-12-23T02:45:21.370Z,39.89
2017-12-23T02:45:43.069Z,39.90
2017-12-23T02:46:04.771Z,39.91
2017-12-23T02:46:26.452Z,39.90
2017-12-23T02:46:48.148Z,39.91
2017-12-23T02:47:09.842Z,39.95
2017-12-23T02:47:31.533Z,39.93
2017-12-23T02:47:53.245Z,39.93
2017-12-23T02:48:19.718Z,39.91
2017-12-23T02:48:41.403Z,39.92
2017-12-23T02:49:07.878Z,39.93
2017-12-23T02:49:29.569Z,39.95
2017-12-23T02:50:00.808Z,39.93
2017-12-23T02:50:22.529Z,39.88
2017-12-23T02:50:44.217Z,39.97
2017-12-23T02:51:05.918Z,39.95
2017-12-23T02:51:27.601Z,39.91
2017-12-23T02:51:49.288Z,39.92
2017-12-23T02:52:10.980Z,39.91
2017-12-23T02:52:32.670Z,39.93
2017-12-23T02:52:54.359Z,39.92
2017-12-23T02:53:16.057Z,39.93
2017-12-23T02:53:37.740Z,39.97
2017-12-23T02:53:59.438Z,39.90
2017-12-23T02:54:21.131Z,39.86
2017-12-23T02:54:42.817Z,39.82
2017-12-23T02:55:09.296Z,39.84
2017-12-23T02:55:31.023Z,39.83
2017-12-23T02:55:52.710Z,39.81
2017-12-23T02:56:14.408Z,39.80
2017-12-23T02:56:40.885Z,39.80
2017-12-23T02:57:02.574Z,39.78
2017-12-23T02:57:24.260Z,39.79
2017-12-23T02:57:45.957Z,39.78
2017-12-23T02:58:07.643Z,39.81
2017-12-23T02:58:29.328Z,39.82
2017-12-23T02:58:51.024Z,39.79
2017-12-23T02:59:12.710Z,39.78
2017-12-23T02:59:34.397Z,39.82
2017-12-23T03:00:00.860Z,39.79
2017-12-23T03:00:22.556Z,39.77
2017-12-23T03:00:53.813Z,39.79
2017-12-23T03:01:15.498Z,39.76
2017-12-23T03:01:37.192Z,39.74
2017-12-23T03:01:58.890Z,39.79
2017-12-23T03:02:20.581Z,39.75
2017-12-23T03:02:42.271Z,39.76
2017-12-23T03:03:03.964Z,39.75
2017-12-23T03:03:25.651Z,39.75
2017-12-23T03:03:47.340Z,39.81
2017-12-23T03:04:09.028Z,39.79
2017-12-23T03:04:30.713Z,39.78
2017-12-23T03:04:57.186Z,39.79
2017-12-23T03:05:18.875Z,39.78
2017-12-23T03:05:40.568Z,39.77
2017-12-23T03:06:02.291Z,39.72
2017-12-23T03:06:23.989Z,39.77
2017-12-23T03:06:45.677Z,39.77
2017-12-23T03:07:07.378Z,39.75
2017-12-23T03:07:33.841Z,39.75
2017-12-23T03:07:55.534Z,39.74
2017-12-23T03:08:17.227Z,39.74
2017-12-23T03:08:38.919Z,39.75
2017-12-23T03:09:00.613Z,39.71
2017-12-23T03:09:22.312Z,39.71
2017-12-23T03:09:44.007Z,39.73
2017-12-23T03:10:05.699Z,39.77
2017-12-23T03:10:27.392Z,39.76
2017-12-23T03:10:49.092Z,39.76
2017-12-23T03:11:10.801Z,39.77
2017-12-23T03:11:42.051Z,39.82
2017-12-23T03:12:03.736Z,39.80
2017-12-23T03:12:25.453Z,39.76
2017-12-23T03:12:47.117Z,39.77
2017-12-23T03:13:08.803Z,39.76
2017-12-23T03:13:30.492Z,39.76
2017-12-23T03:13:56.962Z,39.79
2017-12-23T03:14:18.637Z,39.78
2017-12-23T03:14:40.360Z,39.77
2017-12-23T03:15:02.048Z,39.77
2017-12-23T03:15:23.740Z,39.77
2017-12-23T03:15:45.432Z,39.82
2017-12-23T03:16:07.131Z,39.82
2017-12-23T03:16:28.821Z,39.86
2017-12-23T03:16:50.506Z,39.85
2017-12-23T03:17:12.196Z,39.85
2017-12-23T03:17:33.888Z,39.86
2017-12-23T03:17:55.578Z,39.84
2017-12-23T03:18:22.051Z,39.84
2017-12-23T03:18:43.734Z,39.82
2017-12-23T03:19:10.215Z,39.81
2017-12-23T03:19:31.903Z,39.80
2017-12-23T03:19:53.646Z,39.81
2017-12-23T03:20:15.342Z,39.77
2017-12-23T03:20:37.030Z,39.77
2017-12-23T03:21:03.504Z,39.83
2017-12-23T03:21:25.188Z,39.79
2017-12-23T03:21:51.664Z,39.75
2017-12-23T03:22:13.357Z,39.72
2017-12-23T03:22:39.832Z,39.71
2017-12-23T03:23:01.522Z,39.70
2017-12-23T03:23:23.210Z,39.68
2017-12-23T03:23:44.896Z,39.75
2017-12-23T03:24:06.606Z,39.70
2017-12-23T03:24:28.286Z,39.71
2017-12-23T03:24:49.972Z,39.75
2017-12-23T03:25:11.686Z,39.75
2017-12-23T03:25:33.372Z,39.75
2017-12-23T03:25:55.058Z,39.73
2017-12-23T03:26:16.750Z,39.72
2017-12-23T03:26:38.427Z,39.73
2017-12-23T03:27:00.115Z,39.73
2017-12-23T03:27:21.818Z,39.79
2017-12-23T03:27:43.516Z,39.77
2017-12-23T03:28:05.198Z,39.79
2017-12-23T03:28:36.452Z,39.82
2017-12-23T03:28:58.140Z,39.78
2017-12-23T03:29:19.828Z,39.72
2017-12-23T03:29:41.529Z,39.68
2017-12-23T03:30:03.235Z,39.72
2017-12-23T03:30:24.935Z,39.61
2017-12-23T03:30:51.404Z,39.66
2017-12-23T03:31:13.087Z,39.68
2017-12-23T03:31:39.555Z,39.72
2017-12-23T03:32:01.240Z,39.68
2017-12-23T03:32:22.940Z,39.66
2017-12-23T03:32:44.639Z,39.66
2017-12-23T03:33:06.326Z,39.65
2017-12-23T03:33:37.577Z,39.70
2017-12-23T03:33:59.267Z,39.68
2017-12-23T03:34:20.950Z,39.66
2017-12-23T03:34:42.642Z,39.64
2017-12-23T03:35:04.360Z,39.59
2017-12-23T03:35:26.053Z,39.56
2017-12-23T03:35:52.514Z,39.56
2017-12-23T03:36:14.204Z,39.62
2017-12-23T03:36:35.895Z,39.58
2017-12-23T03:36:57.611Z,39.57
2017-12-23T03:37:19.300Z,39.54
2017-12-23T03:37:40.985Z,39.61
2017-12-23T03:38:07.453Z,39.65
2017-12-23T03:38:29.140Z,39.66
2017-12-23T03:38:50.836Z,39.61
2017-12-23T03:39:17.312Z,39.68
2017-12-23T03:39:39.006Z,39.68
2017-12-23T03:40:00.697Z,39.66
2017-12-23T03:40:27.158Z,39.65
2017-12-23T03:40:48.847Z,39.63
2017-12-23T03:41:15.307Z,39.69
2017-12-23T03:41:36.997Z,39.67
2017-12-23T03:41:58.682Z,39.70
2017-12-23T03:42:20.381Z,39.64
2017-12-23T03:42:42.075Z,39.64
2017-12-23T03:43:03.763Z,39.66
2017-12-23T03:43:30.226Z,39.67
2017-12-23T03:43:51.912Z,39.67
2017-12-23T03:44:18.375Z,39.75
2017-12-23T03:44:40.066Z,39.71
2017-12-23T03:45:06.533Z,39.70
2017-12-23T03:45:28.246Z,39.68
2017-12-23T03:45:49.941Z,39.65
2017-12-23T03:46:16.408Z,39.60
2017-12-23T03:46:38.094Z,39.59
2017-12-23T03:46:59.793Z,39.56
2017-12-23T03:47:21.483Z,39.59
2017-12-23T03:47:43.167Z,39.61
2017-12-23T03:48:09.634Z,39.67
2017-12-23T03:48:31.320Z,39.70
2017-12-23T03:48:57.784Z,39.66
2017-12-23T03:49:19.471Z,39.66
2017-12-23T03:49:45.963Z,39.67
2017-12-23T03:50:07.631Z,39.66
2017-12-23T03:50:29.352Z,39.66
2017-12-23T03:50:55.813Z,39.68
2017-12-23T03:51:17.502Z,39.65
2017-12-23T03:51:43.965Z,39.65
2017-12-23T03:52:05.654Z,39.68
2017-12-23T03:52:27.351Z,39.67
2017-12-23T03:52:53.825Z,39.66
2017-12-23T03:53:15.515Z,39.68
2017-12-23T03:53:37.208Z,39.69
2017-12-23T03:54:03.672Z,39.74
2017-12-23T03:54:25.372Z,39.67
2017-12-23T03:54:51.835Z,39.62
2017-12-23T03:55:13.522Z,39.63
2017-12-23T03:55:35.241Z,39.60
2017-12-23T03:55:56.940Z,39.63
2017-12-23T03:56:18.627Z,39.61
2017-12-23T03:56:45.105Z,39.65
2017-12-23T03:57:06.791Z,39.65
2017-12-23T03:57:28.478Z,39.63
2017-12-23T03:57:50.179Z,39.62
2017-12-23T03:58:11.861Z,39.59
2017-12-23T03:58:38.328Z,39.59
2017-12-23T03:59:00.012Z,39.68
2017-12-23T03:59:21.694Z,39.66
2017-12-23T03:59:43.382Z,39.70
2017-12-23T04:00:05.078Z,39.66
2017-12-23T04:00:26.764Z,39.66
2017-12-23T04:00:48.480Z,39.67
2017-12-23T04:01:10.169Z,39.70
2017-12-23T04:01:31.857Z,39.68
2017-12-23T04:01:53.543Z,39.70
2017-12-23T04:02:15.237Z,39.63
2017-12-23T04:02:36.925Z,39.66
2017-12-23T04:02:58.617Z,39.70
2017-12-23T04:03:25.088Z,39.66
2017-12-23T04:03:46.774Z,39.65
2017-12-23T04:04:08.470Z,39.78
2017-12-23T04:04:34.940Z,39.65
2017-12-23T04:04:56.626Z,39.65
2017-12-23T04:05:18.312Z,39.64
2017-12-23T04:05:40.010Z,39.70
2017-12-23T04:06:01.728Z,39.77
2017-12-23T04:06:28.188Z,39.69
2017-12-23T04:06:49.874Z,39.74
2017-12-23T04:07:11.567Z,39.77
2017-12-23T04:07:38.050Z,39.75
2017-12-23T04:07:59.737Z,39.73
2017-12-23T04:08:30.993Z,39.66
2017-12-23T04:08:52.680Z,39.67
2017-12-23T04:09:14.381Z,39.63
2017-12-23T04:09:36.073Z,39.67
2017-12-23T04:09:57.753Z,39.65
2017-12-23T04:10:24.237Z,39.63
2017-12-23T04:10:45.914Z,39.57
2017-12-23T04:11:07.650Z,39.61
2017-12-23T04:11:34.116Z,39.63
2017-12-23T04:11:55.801Z,39.58
2017-12-23T04:12:22.274Z,39.57
2017-12-23T04:12:43.960Z,39.59
2017-12-23T04:13:42.301Z,39.54
2017-12-23T04:14:03.992Z,39.52
2017-12-23T04:14:25.676Z,39.59
2017-12-23T04:14:47.368Z,39.59
2017-12-23T04:15:09.055Z,39.67
2017-12-23T04:15:30.738Z,39.62
2017-12-23T04:15:52.436Z,39.62
2017-12-23T04:16:14.143Z,39.61
2017-12-23T04:16:35.845Z,39.58
2017-12-23T04:16:57.538Z,39.59
2017-12-23T04:17:19.222Z,39.58
2017-12-23T04:17:50.473Z,39.61
2017-12-23T04:18:12.164Z,39.62
2017-12-23T04:18:38.632Z,39.61
2017-12-23T04:19:00.313Z,39.59
2017-12-23T04:19:22.015Z,39.59
2017-12-23T04:19:48.484Z,39.61
2017-12-23T04:20:10.171Z,39.56
2017-12-23T04:20:36.641Z,39.59
2017-12-23T04:20:58.332Z,39.62
2017-12-23T04:21:20.056Z,39.58
2017-12-23T04:21:46.534Z,39.61
2017-12-23T04:22:08.228Z,39.59
2017-12-23T04:22:29.913Z,39.63
2017-12-23T04:22:51.606Z,39.59
2017-12-23T04:23:13.292Z,39.64
2017-12-23T04:23:34.980Z,39.57
2017-12-23T04:23:56.678Z,39.59
2017-12-23T04:24:18.358Z,39.68
2017-12-23T04:24:40.053Z,39.58
2017-12-23T04:25:01.763Z,39.60
2017-12-23T04:25:23.451Z,39.58
2017-12-23T04:25:45.148Z,39.56
2017-12-23T04:26:11.626Z,39.54
2017-12-23T04:26:33.335Z,39.55
2017-12-23T04:26:59.817Z,39.56
2017-12-23T04:27:21.500Z,39.59
2017-12-23T04:27:43.197Z,39.58
2017-12-23T04:28:04.902Z,39.65
2017-12-23T04:28:26.586Z,39.56
2017-12-23T04:28:48.281Z,39.63
2017-12-23T04:29:09.977Z,39.63
2017-12-23T04:29:31.668Z,39.59
2017-12-23T04:29:53.352Z,39.61
2017-12-23T04:30:15.047Z,39.65
2017-12-23T04:30:36.734Z,39.63
2017-12-23T04:30:58.428Z,39.61
2017-12-23T04:31:24.890Z,39.55
2017-12-23T04:31:46.601Z,39.57
2017-12-23T04:32:08.296Z,39.59
2017-12-23T04:32:29.989Z,39.60
2017-12-23T04:32:51.672Z,39.56
2017-12-23T04:33:18.135Z,39.59
2017-12-23T04:33:39.817Z,39.59
2017-12-23T04:34:06.286Z,39.61
2017-12-23T04:34:27.965Z,39.59
2017-12-23T04:34:49.649Z,39.62
2017-12-23T04:35:11.342Z,39.61
2017-12-23T04:35:33.028Z,39.58
2017-12-23T04:35:54.715Z,39.59
2017-12-23T04:36:25.956Z,39.54
2017-12-23T04:36:47.664Z,39.56
2017-12-23T04:37:09.354Z,39.57
2017-12-23T04:37:35.819Z,39.58
2017-12-23T04:37:57.505Z,39.52
2017-12-23T04:38:19.189Z,39.50
2017-12-23T04:38:45.655Z,39.53
2017-12-23T04:39:07.339Z,39.49
2017-12-23T04:39:29.039Z,39.51
2017-12-23T04:39:50.733Z,39.52
2017-12-23T04:40:12.416Z,39.55
2017-12-23T04:40:34.118Z,39.54
2017-12-23T04:41:00.579Z,39.52
2017-12-23T04:41:22.271Z,39.45
2017-12-23T04:41:48.775Z,39.47
2017-12-23T04:42:10.470Z,39.48
2017-12-23T04:42:41.724Z,39.43
2017-12-23T04:43:03.410Z,39.44
2017-12-23T04:43:25.107Z,39.49
2017-12-23T04:43:46.805Z,39.50
2017-12-23T04:44:08.485Z,39.48
2017-12-23T04:44:34.959Z,39.50
2017-12-23T04:44:56.696Z,39.47
2017-12-23T04:45:18.326Z,39.48
2017-12-23T04:45:40.020Z,39.48
2017-12-23T04:46:01.706Z,39.47
2017-12-23T04:46:28.173Z,39.50
2017-12-23T04:46:49.885Z,39.54
2017-12-23T04:47:21.139Z,39.54
2017-12-23T04:47:42.824Z,39.55
2017-12-23T04:48:09.300Z,39.53
2017-12-23T04:48:30.986Z,39.57
2017-12-23T04:48:57.461Z,39.59
2017-12-23T04:49:19.145Z,39.59
2017-12-23T04:49:45.618Z,39.63
2017-12-23T04:50:07.307Z,39.63
2017-12-23T04:50:29.006Z,39.57
2017-12-23T04:50:50.701Z,39.52
2017-12-23T04:51:12.390Z,39.57
2017-12-23T04:51:34.076Z,39.55
2017-12-23T04:52:00.545Z,39.52
2017-12-23T04:52:22.238Z,39.51
2017-12-23T04:52:43.929Z,39.48
2017-12-23T04:53:05.621Z,39.50
2017-12-23T04:53:27.313Z,39.46
2017-12-23T04:53:49.008Z,39.49
2017-12-23T04:54:10.704Z,39.50